Time;durP1;ratioP1;P1;durP2;ratioP2;P2;SDS_P1;SDS_P2;PMS_P1;PMS_P2;Temp;Humidity;BMP_temperature;BMP_pressure;BME280_temperature;BME280_humidity;BME280_pressure;Samples;Min_cycle;Max_cycle;Signal;HPM_P1;HPM_P2
2023/01/17 00:02:02;;;;;;;0.10;0.10;;;;;;;;;;7375185;19;20697;-67
2023/01/17 00:09:55;;;;;;;0.10;0.10;;;;;;;;;;7375028;19;20767;-68
2023/01/17 00:12:29;;;;;;;0.10;0.10;;;;;;;;;;7374883;19;20619;-68
2023/01/17 00:14:59;;;;;;;0.10;0.10;;;;;;;;;;7374225;19;20701;-68
2023/01/17 00:17:29;;;;;;;0.10;0.10;;;;;;;;;;7374480;19;20737;-67
2023/01/17 01:33:56;;;;;;;0.10;0.10;;;;;;;;;;7380309;19;20630;-69
2023/01/17 01:36:25;;;;;;;0.10;0.10;;;;;;;;;;7379868;19;20691;-68
2023/01/17 01:38:55;;;;;;;0.10;0.10;;;;;;;;;;7376678;19;20722;-68
2023/01/17 01:41:24;;;;;;;0.10;0.10;;;;;;;;;;7379086;19;21342;-68
2023/01/17 01:43:54;;;;;;;0.10;0.10;;;;;;;;;;7380118;19;20667;-67
2023/01/17 01:46:25;;;;;;;0.10;0.10;;;;;;;;;;7379419;19;20631;-68
2023/01/17 01:48:59;;;;;;;0.10;0.10;;;;;;;;;;7379630;19;20623;-68
2023/01/17 01:51:28;;;;;;;0.10;0.10;;;;;;;;;;7381309;19;20646;-68
2023/01/17 01:54:00;;;;;;;0.10;0.10;;;;;;;;;;7379913;19;20660;-68
2023/01/17 01:56:29;;;;;;;0.10;0.10;;;;;;;;;;7379520;19;20599;-68
2023/01/17 01:58:58;;;;;;;0.10;0.10;;;;;;;;;;7377665;19;20675;-66
2023/01/17 02:01:28;;;;;;;0.13;0.13;;;;;;;;;;7380544;19;20733;-68
2023/01/17 02:03:59;;;;;;;0.10;0.10;;;;;;;;;;7378055;19;20666;-69
2023/01/17 02:06:31;;;;;;;0.10;0.10;;;;;;;;;;7378644;19;20626;-68
2023/01/17 02:09:02;;;;;;;0.10;0.10;;;;;;;;;;7374581;19;20700;-68
2023/01/17 02:11:31;;;;;;;0.10;0.10;;;;;;;;;;7377455;19;20737;-67
2023/01/17 02:14:00;;;;;;;0.10;0.10;;;;;;;;;;7378032;19;20615;-68
2023/01/17 02:16:33;;;;;;;0.10;0.10;;;;;;;;;;7377656;19;20753;-67
2023/01/17 02:19:13;;;;;;;0.10;0.10;;;;;;;;;;7378329;19;20619;-68
2023/01/17 02:21:44;;;;;;;0.10;0.10;;;;;;;;;;7377104;19;20630;-68
2023/01/17 02:24:32;;;;;;;0.10;0.10;;;;;;;;;;7379402;19;20619;-68
2023/01/17 02:27:06;;;;;;;0.00;0.00;;;;;;;;;;7379076;19;20599;-68
2023/01/17 02:29:45;;;;;;;0.10;0.10;;;;;;;;;;7378332;19;20756;-67
2023/01/17 02:32:20;;;;;;;0.10;0.10;;;;;;;;;;7379288;19;20677;-67
2023/01/17 02:34:53;;;;;;;0.10;0.10;;;;;;;;;;7376713;19;20634;-68
2023/01/17 02:37:25;;;;;;;0.00;0.00;;;;;;;;;;7377316;19;20646;-68
2023/01/17 02:39:56;;;;;;;0.10;0.10;;;;;;;;;;7378744;19;21373;-67
2023/01/17 02:42:27;;;;;;;0.10;0.10;;;;;;;;;;7378452;19;20615;-67
2023/01/17 02:44:56;;;;;;;0.10;0.10;;;;;;;;;;7378160;19;20640;-67
2023/01/17 02:47:28;;;;;;;0.10;0.10;;;;;;;;;;7376423;19;20646;-68
2023/01/17 02:50:00;;;;;;;0.10;0.10;;;;;;;;;;7378546;19;20648;-67
2023/01/17 02:52:39;;;;;;;0.10;0.10;;;;;;;;;;7377540;19;20628;-68
2023/01/17 02:55:16;;;;;;;0.10;0.10;;;;;;;;;;7378026;19;20563;-68
2023/01/17 02:57:53;;;;;;;0.10;0.10;;;;;;;;;;7377250;19;20642;-69
2023/01/17 03:00:23;;;;;;;0.10;0.10;;;;;;;;;;7378717;19;20610;-68
2023/01/17 03:03:00;;;;;;;0.00;0.00;;;;;;;;;;7377979;19;20588;-67
2023/01/17 03:05:31;;;;;;;0.10;0.10;;;;;;;;;;7375716;19;20659;-68
2023/01/17 03:08:00;;;;;;;0.10;0.10;;;;;;;;;;7377627;19;20762;-68
2023/01/17 03:10:30;;;;;;;0.10;0.10;;;;;;;;;;7378948;19;21274;-69
2023/01/17 03:12:59;;;;;;;0.10;0.10;;;;;;;;;;7375311;19;20652;-68
2023/01/17 03:15:29;;;;;;;0.10;0.10;;;;;;;;;;7377702;19;20633;-67
2023/01/17 03:18:02;;;;;;;0.10;0.10;;;;;;;;;;7376395;19;20749;-67
2023/01/17 03:20:31;;;;;;;0.10;0.10;;;;;;;;;;7376365;19;20738;-68
2023/01/17 03:23:00;;;;;;;0.10;0.10;;;;;;;;;;7378848;19;20698;-68
2023/01/17 03:25:29;;;;;;;0.10;0.10;;;;;;;;;;7375263;19;20619;-67
2023/01/17 03:27:59;;;;;;;0.10;0.10;;;;;;;;;;7374883;19;20662;-68
2023/01/17 03:30:27;;;;;;;0.10;0.10;;;;;;;;;;7377732;19;20637;-67
2023/01/17 03:32:56;;;;;;;0.10;0.10;;;;;;;;;;7377796;19;20615;-67
2023/01/17 03:35:28;;;;;;;0.10;0.10;;;;;;;;;;7375215;19;20618;-68
2023/01/17 03:37:57;;;;;;;0.10;0.10;;;;;;;;;;7377273;19;20631;-68
2023/01/17 03:40:26;;;;;;;0.10;0.10;;;;;;;;;;7375666;19;20637;-68
2023/01/17 03:42:55;;;;;;;0.10;0.10;;;;;;;;;;7377156;19;20599;-66
2023/01/17 03:45:24;;;;;;;0.10;0.10;;;;;;;;;;7375366;19;20655;-69
2023/01/17 03:47:55;;;;;;;0.10;0.10;;;;;;;;;;7376276;19;21294;-68
2023/01/17 03:50:24;;;;;;;0.10;0.10;;;;;;;;;;7377414;19;20603;-68
2023/01/17 03:52:56;;;;;;;0.00;0.00;;;;;;;;;;7376104;19;20603;-68
2023/01/17 03:55:24;;;;;;;0.10;0.10;;;;;;;;;;7376024;19;20634;-68
2023/01/17 03:57:53;;;;;;;0.20;0.20;;;;;;;;;;7374683;19;20754;-68
2023/01/17 04:00:23;;;;;;;0.10;0.10;;;;;;;;;;7377237;19;20619;-67
2023/01/17 04:02:51;;;;;;;0.10;0.10;;;;;;;;;;7376412;19;21390;-67
2023/01/17 04:05:20;;;;;;;0.10;0.10;;;;;;;;;;7375539;19;20611;-68
2023/01/17 04:07:49;;;;;;;0.10;0.10;;;;;;;;;;7373415;19;20695;-68
2023/01/17 04:10:21;;;;;;;0.10;0.10;;;;;;;;;;7376198;19;21020;-68
2023/01/17 04:12:50;;;;;;;0.10;0.10;;;;;;;;;;7373848;19;20696;-67
2023/01/17 04:15:19;;;;;;;0.00;0.00;;;;;;;;;;7374474;19;20717;-67
2023/01/17 04:17:48;;;;;;;0.10;0.10;;;;;;;;;;7373546;19;20835;-68
2023/01/17 04:20:19;;;;;;;0.10;0.10;;;;;;;;;;7376267;19;20636;-68
2023/01/17 04:22:48;;;;;;;0.10;0.10;;;;;;;;;;7373425;19;20653;-68
2023/01/17 04:25:16;;;;;;;0.10;0.10;;;;;;;;;;7373032;19;20987;-68
2023/01/17 04:27:48;;;;;;;0.10;0.10;;;;;;;;;;7373864;19;20651;-67
2023/01/17 04:30:17;;;;;;;0.10;0.10;;;;;;;;;;7371974;19;20622;-66
2023/01/17 04:32:46;;;;;;;0.10;0.10;;;;;;;;;;7374133;19;20665;-67
2023/01/17 04:35:15;;;;;;;0.10;0.10;;;;;;;;;;7374379;19;20610;-67
2023/01/17 04:37:44;;;;;;;0.10;0.10;;;;;;;;;;7372567;19;20919;-68
2023/01/17 04:40:13;;;;;;;0.10;0.10;;;;;;;;;;7375680;19;20620;-68
2023/01/17 04:42:43;;;;;;;0.10;0.10;;;;;;;;;;7374047;19;20679;-68
2023/01/17 04:45:15;;;;;;;0.10;0.10;;;;;;;;;;7374728;19;20645;-68
2023/01/17 04:47:44;;;;;;;0.00;0.00;;;;;;;;;;7374502;19;20611;-68
2023/01/17 04:50:13;;;;;;;0.10;0.10;;;;;;;;;;7375030;19;20660;-67
2023/01/17 04:52:42;;;;;;;0.10;0.10;;;;;;;;;;7373978;19;20663;-68
2023/01/17 04:55:11;;;;;;;0.10;0.10;;;;;;;;;;7375511;19;20957;-67
2023/01/17 04:57:40;;;;;;;0.10;0.10;;;;;;;;;;7374361;19;20653;-68
2023/01/17 05:00:10;;;;;;;0.10;0.10;;;;;;;;;;7374005;19;20640;-68
2023/01/17 05:02:42;;;;;;;0.10;0.10;;;;;;;;;;7374518;19;20649;-68
2023/01/17 05:05:12;;;;;;;0.10;0.10;;;;;;;;;;7375716;19;20714;-67
2023/01/17 05:07:40;;;;;;;0.10;0.10;;;;;;;;;;7374251;19;20679;-69
2023/01/17 05:10:10;;;;;;;0.10;0.10;;;;;;;;;;7376770;19;20599;-67
2023/01/17 05:12:39;;;;;;;0.10;0.10;;;;;;;;;;7374992;19;20567;-68
2023/01/17 05:15:08;;;;;;;0.10;0.10;;;;;;;;;;7372524;19;20629;-68
2023/01/17 05:17:37;;;;;;;0.10;0.10;;;;;;;;;;7374208;19;20635;-67
2023/01/17 05:20:09;;;;;;;0.10;0.10;;;;;;;;;;7372896;19;20683;-68
2023/01/17 05:22:38;;;;;;;0.00;0.00;;;;;;;;;;7373390;19;20649;-67
2023/01/17 05:25:08;;;;;;;0.10;0.10;;;;;;;;;;7373710;19;20628;-68
2023/01/17 05:27:36;;;;;;;0.10;0.10;;;;;;;;;;7374571;19;20639;-68
2023/01/17 05:30:06;;;;;;;0.10;0.10;;;;;;;;;;7371681;19;20662;-68
2023/01/17 05:32:35;;;;;;;0.10;0.10;;;;;;;;;;7373554;19;20607;-68
2023/01/17 05:35:04;;;;;;;0.10;0.10;;;;;;;;;;7372467;19;20656;-68
2023/01/17 05:37:35;;;;;;;0.10;0.10;;;;;;;;;;7373315;19;20652;-68
2023/01/17 05:40:04;;;;;;;0.10;0.10;;;;;;;;;;7371289;19;20684;-68
2023/01/17 05:42:34;;;;;;;0.10;0.10;;;;;;;;;;7373457;19;20665;-70
2023/01/17 05:45:03;;;;;;;0.10;0.10;;;;;;;;;;7379247;19;20623;-69
2023/01/17 05:47:32;;;;;;;0.10;0.10;;;;;;;;;;7380307;19;20741;-68
2023/01/17 05:50:01;;;;;;;0.10;0.10;;;;;;;;;;7380388;19;20602;-68
2023/01/17 05:52:30;;;;;;;0.10;0.10;;;;;;;;;;7380602;19;20647;-68
2023/01/17 05:55:01;;;;;;;0.10;0.10;;;;;;;;;;7378892;19;20783;-68
2023/01/17 05:57:30;;;;;;;0.10;0.10;;;;;;;;;;7379081;19;20729;-67
2023/01/17 05:59:59;;;;;;;0.10;0.10;;;;;;;;;;7378685;19;20750;-68
2023/01/17 06:02:28;;;;;;;0.10;0.10;;;;;;;;;;7378569;19;20697;-68
2023/01/17 06:04:57;;;;;;;0.10;0.10;;;;;;;;;;7379394;19;20736;-68
2023/01/17 06:07:26;;;;;;;0.10;0.10;;;;;;;;;;7379311;19;20654;-67
2023/01/17 06:09:55;;;;;;;0.10;0.10;;;;;;;;;;7380100;19;20611;-68
2023/01/17 06:12:27;;;;;;;0.10;0.10;;;;;;;;;;7380182;19;20688;-67
2023/01/17 06:14:56;;;;;;;0.10;0.10;;;;;;;;;;7379000;19;20711;-67
2023/01/17 06:17:24;;;;;;;0.10;0.10;;;;;;;;;;7377547;19;20698;-68
2023/01/17 06:19:53;;;;;;;0.10;0.10;;;;;;;;;;7375651;19;20701;-68
2023/01/17 06:22:22;;;;;;;0.10;0.10;;;;;;;;;;7379814;19;20705;-67
2023/01/17 06:24:51;;;;;;;0.10;0.10;;;;;;;;;;7379155;19;20607;-68
2023/01/17 06:27:20;;;;;;;0.10;0.10;;;;;;;;;;7376856;19;20670;-66
2023/01/17 06:29:51;;;;;;;0.10;0.10;;;;;;;;;;7378497;19;20822;-68
2023/01/17 06:32:20;;;;;;;0.10;0.10;;;;;;;;;;7378283;19;20635;-68
2023/01/17 06:34:49;;;;;;;0.10;0.10;;;;;;;;;;7376038;19;21380;-68
2023/01/17 06:37:18;;;;;;;0.10;0.10;;;;;;;;;;7376345;19;20723;-68
2023/01/17 06:39:47;;;;;;;0.10;0.10;;;;;;;;;;7377864;19;20688;-68
2023/01/17 06:42:16;;;;;;;0.10;0.10;;;;;;;;;;7379233;19;20599;-69
2023/01/17 06:44:45;;;;;;;0.10;0.10;;;;;;;;;;7382135;19;20737;-67
2023/01/17 06:47:17;;;;;;;0.10;0.10;;;;;;;;;;7372874;19;20650;-67
2023/01/17 06:49:45;;;;;;;0.10;0.10;;;;;;;;;;7376115;19;20614;-67
2023/01/17 06:52:15;;;;;;;0.10;0.10;;;;;;;;;;7377047;19;20595;-68
2023/01/17 06:54:44;;;;;;;0.10;0.10;;;;;;;;;;7374428;19;20691;-66
2023/01/17 06:57:12;;;;;;;0.10;0.10;;;;;;;;;;7377453;19;20782;-66
2023/01/17 06:59:41;;;;;;;0.10;0.10;;;;;;;;;;7376534;19;20623;-67
2023/01/17 07:02:12;;;;;;;0.10;0.10;;;;;;;;;;7378776;19;20579;-65
2023/01/17 07:04:43;;;;;;;0.03;0.03;;;;;;;;;;7378499;19;20686;-67
2023/01/17 07:07:12;;;;;;;0.10;0.10;;;;;;;;;;7378422;19;20691;-67
2023/01/17 07:09:42;;;;;;;0.10;0.10;;;;;;;;;;7378265;19;20671;-67
2023/01/17 07:12:11;;;;;;;0.10;0.10;;;;;;;;;;7378559;19;21368;-68
2023/01/17 07:14:40;;;;;;;0.13;0.13;;;;;;;;;;7374771;19;20641;-67
2023/01/17 07:17:09;;;;;;;0.10;0.10;;;;;;;;;;7377858;19;20619;-67
2023/01/17 07:19:38;;;;;;;0.10;0.10;;;;;;;;;;7376427;19;20733;-67
2023/01/17 07:22:12;;;;;;;0.10;0.10;;;;;;;;;;7377101;19;20649;-68
2023/01/17 07:24:41;;;;;;;0.10;0.10;;;;;;;;;;7376391;19;20662;-68
2023/01/17 07:27:10;;;;;;;0.10;0.10;;;;;;;;;;7376951;19;20701;-68
2023/01/17 07:29:39;;;;;;;0.10;0.10;;;;;;;;;;7377512;19;20627;-67
2023/01/17 07:32:09;;;;;;;0.10;0.10;;;;;;;;;;7376053;19;20634;-67
2023/01/17 07:34:38;;;;;;;0.10;0.10;;;;;;;;;;7375738;19;20679;-67
2023/01/17 07:37:10;;;;;;;0.10;0.10;;;;;;;;;;7375175;19;20650;-68
2023/01/17 07:39:39;;;;;;;0.10;0.10;;;;;;;;;;7375352;19;20623;-67
2023/01/17 07:42:08;;;;;;;0.10;0.10;;;;;;;;;;7376079;19;21298;-68
2023/01/17 07:44:39;;;;;;;0.10;0.10;;;;;;;;;;7375158;19;20623;-68
2023/01/17 07:47:08;;;;;;;0.10;0.10;;;;;;;;;;7375617;19;20711;-67
2023/01/17 07:49:37;;;;;;;0.10;0.10;;;;;;;;;;7374913;19;20622;-68
2023/01/17 07:52:09;;;;;;;0.10;0.10;;;;;;;;;;7374898;19;20622;-68
2023/01/17 07:54:38;;;;;;;0.10;0.10;;;;;;;;;;7374293;19;20631;-68
2023/01/17 07:57:07;;;;;;;0.10;0.10;;;;;;;;;;7376692;19;20729;-68
2023/01/17 07:59:36;;;;;;;0.10;0.10;;;;;;;;;;7375333;19;20685;-68
2023/01/17 08:02:05;;;;;;;0.10;0.10;;;;;;;;;;7377340;19;20591;-67
2023/01/17 08:04:34;;;;;;;0.10;0.10;;;;;;;;;;7375808;19;20722;-68
2023/01/17 08:07:03;;;;;;;0.10;0.10;;;;;;;;;;7375478;19;20599;-68
2023/01/17 08:09:34;;;;;;;0.10;0.10;;;;;;;;;;7376004;19;20741;-68
2023/01/17 08:12:03;;;;;;;0.10;0.10;;;;;;;;;;7374758;19;20722;-67
2023/01/17 08:14:32;;;;;;;0.10;0.10;;;;;;;;;;7374978;19;20718;-67
2023/01/17 08:17:05;;;;;;;0.10;0.10;;;;;;;;;;7373868;19;20671;-68
2023/01/17 08:19:34;;;;;;;0.10;0.10;;;;;;;;;;7373542;19;20615;-67
2023/01/17 08:22:03;;;;;;;0.10;0.10;;;;;;;;;;7376192;19;20591;-68
2023/01/17 08:24:35;;;;;;;0.10;0.10;;;;;;;;;;7373547;19;20619;-67
2023/01/17 08:27:03;;;;;;;0.10;0.10;;;;;;;;;;7376283;19;20675;-67
2023/01/17 08:29:32;;;;;;;0.10;0.10;;;;;;;;;;7375516;19;20713;-68
2023/01/17 08:32:02;;;;;;;0.10;0.10;;;;;;;;;;7375154;19;20637;-67
2023/01/17 08:34:30;;;;;;;0.10;0.10;;;;;;;;;;7375314;19;20741;-67
2023/01/17 08:36:59;;;;;;;0.10;0.10;;;;;;;;;;7374417;19;20640;-68
2023/01/17 08:39:28;;;;;;;0.10;0.10;;;;;;;;;;7373310;19;20675;-69
2023/01/17 08:42:00;;;;;;;0.10;0.10;;;;;;;;;;7373672;19;20703;-68
2023/01/17 08:44:29;;;;;;;0.10;0.10;;;;;;;;;;7372797;19;20695;-67
2023/01/17 08:46:58;;;;;;;0.10;0.10;;;;;;;;;;7372645;19;20611;-68
2023/01/17 08:49:27;;;;;;;0.10;0.10;;;;;;;;;;7373305;19;20644;-68
2023/01/17 08:51:55;;;;;;;0.10;0.10;;;;;;;;;;7374226;19;20619;-68
2023/01/17 08:54:24;;;;;;;0.10;0.10;;;;;;;;;;7372142;19;20618;-66
2023/01/17 08:56:54;;;;;;;0.10;0.10;;;;;;;;;;7374570;19;20656;-67
2023/01/17 08:59:25;;;;;;;0.10;0.10;;;;;;;;;;7374642;19;20761;-67
2023/01/17 09:01:56;;;;;;;0.10;0.10;;;;;;;;;;7375094;19;20722;-67
2023/01/17 09:04:25;;;;;;;0.10;0.10;;;;;;;;;;7374237;19;21419;-67
2023/01/17 09:06:54;;;;;;;0.10;0.10;;;;;;;;;;7374339;19;20726;-66
2023/01/17 09:09:23;;;;;;;0.10;0.10;;;;;;;;;;7372622;19;20638;-67
2023/01/17 09:11:52;;;;;;;0.10;0.10;;;;;;;;;;7374580;19;20658;-66
2023/01/17 09:14:21;;;;;;;0.10;0.10;;;;;;;;;;7373990;19;20680;-67
2023/01/17 09:16:52;;;;;;;0.10;0.10;;;;;;;;;;7373274;19;20627;-66
2023/01/17 09:19:21;;;;;;;0.10;0.10;;;;;;;;;;7380686;19;20599;-66
2023/01/17 09:21:50;;;;;;;0.10;0.10;;;;;;;;;;7380364;19;20668;-66
2023/01/17 09:24:19;;;;;;;0.10;0.10;;;;;;;;;;7380552;19;20664;-66
2023/01/17 09:26:48;;;;;;;0.10;0.10;;;;;;;;;;7378935;19;20615;-66
2023/01/17 09:29:17;;;;;;;0.10;0.10;;;;;;;;;;7382239;19;20697;-66
2023/01/17 09:31:46;;;;;;;0.10;0.10;;;;;;;;;;7381595;19;20603;-66
2023/01/17 09:34:18;;;;;;;0.10;0.10;;;;;;;;;;7381146;19;20595;-64
2023/01/17 09:36:47;;;;;;;0.10;0.10;;;;;;;;;;7378533;19;20713;-65
2023/01/17 09:39:16;;;;;;;0.10;0.10;;;;;;;;;;7381182;19;20598;-66
2023/01/17 09:41:49;;;;;;;0.10;0.10;;;;;;;;;;7374884;19;20651;-65
2023/01/17 09:44:24;;;;;;;0.10;0.10;;;;;;;;;;7379442;19;20639;-66
2023/01/17 09:46:54;;;;;;;0.10;0.10;;;;;;;;;;7380348;19;20602;-67
2023/01/17 09:49:32;;;;;;;0.10;0.10;;;;;;;;;;7380631;19;20599;-65
2023/01/17 09:52:02;;;;;;;0.10;0.10;;;;;;;;;;7379284;19;20639;-66
2023/01/17 09:54:34;;;;;;;0.10;0.10;;;;;;;;;;7380715;19;20607;-65
2023/01/17 09:57:05;;;;;;;0.10;0.10;;;;;;;;;;7380799;19;20717;-65
2023/01/17 09:59:39;;;;;;;0.10;0.10;;;;;;;;;;7380671;19;20603;-66
2023/01/17 10:02:14;;;;;;;0.10;0.10;;;;;;;;;;7380949;19;20652;-66
2023/01/17 10:04:58;;;;;;;0.10;0.10;;;;;;;;;;7377648;19;20618;-65
2023/01/17 10:07:35;;;;;;;0.10;0.10;;;;;;;;;;7378706;19;20614;-65
2023/01/17 10:10:15;;;;;;;0.10;0.10;;;;;;;;;;7378100;19;20623;-66
2023/01/17 10:12:46;;;;;;;0.10;0.10;;;;;;;;;;7379857;19;20705;-66
2023/01/17 10:15:27;;;;;;;0.10;0.10;;;;;;;;;;7378846;19;20689;-65
2023/01/17 10:17:59;;;;;;;0.10;0.10;;;;;;;;;;7376610;19;20749;-66
2023/01/17 10:20:43;;;;;;;0.10;0.10;;;;;;;;;;7378707;19;20657;-65
2023/01/17 10:23:24;;;;;;;0.10;0.10;;;;;;;;;;7379454;19;20603;-65
2023/01/17 10:25:53;;;;;;;0.10;0.10;;;;;;;;;;7377819;19;20638;-65
2023/01/17 10:28:24;;;;;;;0.10;0.10;;;;;;;;;;7374695;19;20662;-65
2023/01/17 10:30:54;;;;;;;0.10;0.10;;;;;;;;;;7379488;19;20607;-66
2023/01/17 10:33:23;;;;;;;0.03;0.03;;;;;;;;;;7379852;19;20603;-66
2023/01/17 10:35:58;;;;;;;0.10;0.10;;;;;;;;;;7378799;19;20635;-66
2023/01/17 10:38:37;;;;;;;0.10;0.10;;;;;;;;;;7376372;19;20662;-66
2023/01/17 10:41:08;;;;;;;0.10;0.10;;;;;;;;;;7377798;19;20602;-66
2023/01/17 10:43:46;;;;;;;0.10;0.10;;;;;;;;;;7377428;19;21263;-66
2023/01/17 10:46:21;;;;;;;0.10;0.10;;;;;;;;;;7379417;19;20662;-65
2023/01/17 10:48:51;;;;;;;0.10;0.10;;;;;;;;;;7376223;19;20755;-66
2023/01/17 10:51:29;;;;;;;0.10;0.10;;;;;;;;;;7377325;19;20757;-66
2023/01/17 10:54:03;;;;;;;0.10;0.10;;;;;;;;;;7379260;19;20591;-66
2023/01/17 10:56:32;;;;;;;0.10;0.10;;;;;;;;;;7378573;19;20587;-65
2023/01/17 10:59:12;;;;;;;0.10;0.10;;;;;;;;;;7374973;19;20658;-66
2023/01/17 11:01:41;;;;;;;0.10;0.10;;;;;;;;;;7375008;19;20688;-66
2023/01/17 11:04:15;;;;;;;0.07;0.07;;;;;;;;;;7378229;19;20660;-66
2023/01/17 11:06:48;;;;;;;0.10;0.10;;;;;;;;;;7378408;19;20705;-68
2023/01/17 11:09:17;;;;;;;0.10;0.10;;;;;;;;;;7376681;19;20643;-66
2023/01/17 11:11:48;;;;;;;0.10;0.10;;;;;;;;;;7376681;19;20722;-66
2023/01/17 11:14:20;;;;;;;0.10;0.10;;;;;;;;;;7375844;19;20630;-66
2023/01/17 11:17:01;;;;;;;0.10;0.10;;;;;;;;;;7378234;19;20647;-64
2023/01/17 11:19:34;;;;;;;0.10;0.10;;;;;;;;;;7379768;19;20709;-65
2023/01/17 11:22:08;;;;;;;0.10;0.10;;;;;;;;;;7376737;19;20673;-66
2023/01/17 11:24:38;;;;;;;0.10;0.10;;;;;;;;;;7376728;19;20635;-66
2023/01/17 11:27:08;;;;;;;0.10;0.10;;;;;;;;;;7375350;19;20678;-65
2023/01/17 11:29:38;;;;;;;0.10;0.10;;;;;;;;;;7378858;19;20647;-66
2023/01/17 11:32:27;;;;;;;0.10;0.10;;;;;;;;;;7375140;19;20626;-67
2023/01/17 11:35:07;;;;;;;0.10;0.10;;;;;;;;;;7375745;19;20591;-66
2023/01/17 11:37:40;;;;;;;0.10;0.10;;;;;;;;;;7376277;19;20619;-67
2023/01/17 11:40:09;;;;;;;0.10;0.10;;;;;;;;;;7375065;19;20664;-65
2023/01/17 11:42:39;;;;;;;0.10;0.10;;;;;;;;;;7376236;19;20604;-67
2023/01/17 11:45:24;;;;;;;0.00;0.00;;;;;;;;;;7376994;19;20671;-66
2023/01/17 11:48:06;;;;;;;0.10;0.10;;;;;;;;;;7374451;19;20708;-66
2023/01/17 11:50:36;;;;;;;0.10;0.10;;;;;;;;;;7377655;19;20595;-66
2023/01/17 11:53:16;;;;;;;0.10;0.10;;;;;;;;;;7376435;19;21334;-67
2023/01/17 11:55:54;;;;;;;0.10;0.10;;;;;;;;;;7373927;19;20686;-66
2023/01/17 11:58:24;;;;;;;0.10;0.10;;;;;;;;;;7375615;19;20761;-66
2023/01/17 12:00:57;;;;;;;0.10;0.10;;;;;;;;;;7374443;19;20750;-66
2023/01/17 12:03:32;;;;;;;0.10;0.10;;;;;;;;;;7374724;19;20741;-65
2023/01/17 12:06:04;;;;;;;0.00;0.00;;;;;;;;;;7375000;19;20610;-66
2023/01/17 12:08:40;;;;;;;0.10;0.10;;;;;;;;;;7373858;19;20781;-66
2023/01/17 12:11:13;;;;;;;0.10;0.10;;;;;;;;;;7375730;19;20655;-65
2023/01/17 12:16:32;;;;;;;0.10;0.10;;;;;;;;;;7375311;19;20639;-66
2023/01/17 12:19:07;;;;;;;0.10;0.10;;;;;;;;;;7375342;19;20619;-66
2023/01/17 12:21:42;;;;;;;0.10;0.10;;;;;;;;;;7375308;19;20599;-66
2023/01/17 12:24:24;;;;;;;0.10;0.10;;;;;;;;;;7376747;19;20611;-65
2023/01/17 12:26:55;;;;;;;0.10;0.10;;;;;;;;;;7373139;19;21377;-66
2023/01/17 12:29:35;;;;;;;0.10;0.10;;;;;;;;;;7376840;19;20710;-66
2023/01/17 12:32:13;;;;;;;0.10;0.10;;;;;;;;;;7376231;19;20723;-66
2023/01/17 12:34:45;;;;;;;0.10;0.10;;;;;;;;;;7374780;19;20733;-66
2023/01/17 12:37:20;;;;;;;0.10;0.10;;;;;;;;;;7374556;19;20676;-66
2023/01/17 12:39:54;;;;;;;0.10;0.10;;;;;;;;;;7372852;19;20740;-66
2023/01/17 12:42:25;;;;;;;0.10;0.10;;;;;;;;;;7374713;19;20716;-66
2023/01/17 12:44:57;;;;;;;0.10;0.10;;;;;;;;;;7374464;19;21432;-66
2023/01/17 12:47:28;;;;;;;0.10;0.10;;;;;;;;;;7374025;19;20603;-65
2023/01/17 12:50:03;;;;;;;0.10;0.10;;;;;;;;;;7375230;19;20599;-66
2023/01/17 12:52:38;;;;;;;0.10;0.10;;;;;;;;;;7379341;19;20702;-66
2023/01/17 12:55:16;;;;;;;0.00;0.00;;;;;;;;;;7380938;19;20755;-66
2023/01/17 12:57:47;;;;;;;0.10;0.10;;;;;;;;;;7379283;19;20674;-66
2023/01/17 13:00:20;;;;;;;0.10;0.10;;;;;;;;;;7382340;19;20602;-67
2023/01/17 13:02:52;;;;;;;0.10;0.10;;;;;;;;;;7377474;19;20757;-66
2023/01/17 13:05:23;;;;;;;0.10;0.10;;;;;;;;;;7382057;19;20599;-66
2023/01/17 13:07:54;;;;;;;0.10;0.10;;;;;;;;;;7379976;19;21151;-66
2023/01/17 13:10:27;;;;;;;0.10;0.10;;;;;;;;;;7382308;19;20633;-67
2023/01/17 13:12:58;;;;;;;0.10;0.10;;;;;;;;;;7384038;19;20615;-66
2023/01/17 13:15:28;;;;;;;0.00;0.00;;;;;;;;;;7382035;19;20603;-67
2023/01/17 13:18:02;;;;;;;0.10;0.10;;;;;;;;;;7380741;19;20623;-65
2023/01/17 13:20:35;;;;;;;0.10;0.10;;;;;;;;;;7380212;19;20626;-66
2023/01/17 13:23:10;;;;;;;0.10;0.10;;;;;;;;;;7381002;19;20664;-66
2023/01/17 13:25:44;;;;;;;0.10;0.10;;;;;;;;;;7379622;19;20630;-66
2023/01/17 13:28:20;;;;;;;0.10;0.10;;;;;;;;;;7380851;19;20606;-66
2023/01/17 13:30:56;;;;;;;0.00;0.00;;;;;;;;;;7382424;19;20635;-66
2023/01/17 13:33:30;;;;;;;0.00;0.00;;;;;;;;;;7379706;19;20751;-67
2023/01/17 13:36:06;;;;;;;0.10;0.10;;;;;;;;;;7379912;19;20748;-66
2023/01/17 13:38:42;;;;;;;0.10;0.10;;;;;;;;;;7379931;19;20665;-66
2023/01/17 13:41:18;;;;;;;0.10;0.10;;;;;;;;;;7380901;19;20610;-66
2023/01/17 13:44:20;;;;;;;0.00;0.00;;;;;;;;;;7379536;19;20656;-67
2023/01/17 13:46:52;;;;;;;0.10;0.10;;;;;;;;;;7379779;19;20627;-67
2023/01/17 13:49:24;;;;;;;0.10;0.10;;;;;;;;;;7379215;19;20663;-66
2023/01/17 13:52:11;;;;;;;0.10;0.10;;;;;;;;;;7380344;19;20619;-67
2023/01/17 13:54:46;;;;;;;0.10;0.10;;;;;;;;;;7378411;19;20735;-66
2023/01/17 13:57:40;;;;;;;0.10;0.10;;;;;;;;;;7380607;19;20622;-66
2023/01/17 14:00:30;;;;;;;0.10;0.10;;;;;;;;;;7379162;19;21039;-66
2023/01/17 14:02:59;;;;;;;0.10;0.10;;;;;;;;;;7375286;19;20764;-67
2023/01/17 14:05:43;;;;;;;0.10;0.10;;;;;;;;;;7377459;19;20627;-66
2023/01/17 14:08:16;;;;;;;0.10;0.10;;;;;;;;;;7377444;19;20698;-66
2023/01/17 14:10:46;;;;;;;0.00;0.00;;;;;;;;;;7378415;19;20618;-66
2023/01/17 14:13:32;;;;;;;0.10;0.10;;;;;;;;;;7380489;19;20603;-66
2023/01/17 14:16:04;;;;;;;0.10;0.10;;;;;;;;;;7378786;19;20603;-67
2023/01/17 14:18:35;;;;;;;0.10;0.10;;;;;;;;;;7376516;19;20666;-67
2023/01/17 14:21:12;;;;;;;0.10;0.10;;;;;;;;;;7380188;19;20602;-67
2023/01/17 14:23:58;;;;;;;0.10;0.10;;;;;;;;;;7377739;19;20691;-66
2023/01/17 14:26:42;;;;;;;0.10;0.10;;;;;;;;;;7379712;19;20671;-66
2023/01/17 14:29:26;;;;;;;0.10;0.10;;;;;;;;;;7381111;19;20792;-67
2023/01/17 14:32:04;;;;;;;0.10;0.10;;;;;;;;;;7378968;19;21006;-66
2023/01/17 14:34:33;;;;;;;0.10;0.10;;;;;;;;;;7378902;19;20593;-65
2023/01/17 14:37:07;;;;;;;0.10;0.10;;;;;;;;;;7378032;19;20607;-67
2023/01/17 14:39:45;;;;;;;0.10;0.10;;;;;;;;;;7379129;19;20635;-67
2023/01/17 14:42:15;;;;;;;0.10;0.10;;;;;;;;;;7375965;19;20594;-66
2023/01/17 14:44:47;;;;;;;0.10;0.10;;;;;;;;;;7379471;19;20595;-67
2023/01/17 14:47:19;;;;;;;0.10;0.10;;;;;;;;;;7377237;19;20785;-66
2023/01/17 14:49:48;;;;;;;0.10;0.10;;;;;;;;;;7378564;19;20614;-67
2023/01/17 14:52:20;;;;;;;0.10;0.10;;;;;;;;;;7377974;19;20724;-66
2023/01/17 14:54:49;;;;;;;0.10;0.10;;;;;;;;;;7377567;19;20643;-66
2023/01/17 14:57:26;;;;;;;0.10;0.10;;;;;;;;;;7378310;19;20615;-66
2023/01/17 15:00:11;;;;;;;0.10;0.10;;;;;;;;;;7378062;19;20731;-67
2023/01/17 15:02:44;;;;;;;0.10;0.10;;;;;;;;;;7377020;19;20637;-66
2023/01/17 15:05:15;;;;;;;0.10;0.10;;;;;;;;;;7377055;19;20623;-66
2023/01/17 15:07:45;;;;;;;0.10;0.10;;;;;;;;;;7375846;19;20681;-66
2023/01/17 15:10:15;;;;;;;0.10;0.10;;;;;;;;;;7379443;19;20722;-67
2023/01/17 15:12:45;;;;;;;0.10;0.10;;;;;;;;;;7376190;19;20642;-67
2023/01/17 15:15:30;;;;;;;0.10;0.10;;;;;;;;;;7376137;19;20627;-67
2023/01/17 15:18:28;;;;;;;0.10;0.10;;;;;;;;;;7376044;19;21382;-65
2023/01/17 15:21:01;;;;;;;0.10;0.10;;;;;;;;;;7373504;19;20697;-67
2023/01/17 15:23:33;;;;;;;0.10;0.10;;;;;;;;;;7366202;19;20734;-66
2023/01/17 15:26:03;;;;;;;0.10;0.10;;;;;;;;;;7373715;19;20662;-67
2023/01/17 15:28:32;;;;;;;0.10;0.10;;;;;;;;;;7372286;19;20746;-66
2023/01/17 15:31:09;;;;;;;0.10;0.10;;;;;;;;;;7376913;19;20740;-66
2023/01/17 15:33:40;;;;;;;0.10;0.10;;;;;;;;;;7376211;19;20641;-66
2023/01/17 15:36:13;;;;;;;0.10;0.10;;;;;;;;;;7374628;19;20631;-67
2023/01/17 15:38:49;;;;;;;0.10;0.10;;;;;;;;;;7371353;19;20654;-67
2023/01/17 15:41:19;;;;;;;0.10;0.10;;;;;;;;;;7375869;19;20599;-67
2023/01/17 15:43:48;;;;;;;0.10;0.10;;;;;;;;;;7371419;19;20607;-67
2023/01/17 15:46:29;;;;;;;0.10;0.10;;;;;;;;;;7373518;19;20669;-67
2023/01/17 15:49:08;;;;;;;0.10;0.10;;;;;;;;;;7372623;19;20666;-67
2023/01/17 15:51:41;;;;;;;0.10;0.10;;;;;;;;;;7375769;19;20614;-67
2023/01/17 15:54:25;;;;;;;0.10;0.10;;;;;;;;;;7376266;19;20622;-67
2023/01/17 15:57:03;;;;;;;0.10;0.10;;;;;;;;;;7375221;19;20702;-67
2023/01/17 15:59:41;;;;;;;0.10;0.10;;;;;;;;;;7375887;19;20681;-66
2023/01/17 16:02:26;;;;;;;0.10;0.10;;;;;;;;;;7375998;19;20619;-67
2023/01/17 16:04:55;;;;;;;0.10;0.10;;;;;;;;;;7373221;19;20732;-67
2023/01/17 16:07:31;;;;;;;0.10;0.10;;;;;;;;;;7376047;19;20615;-67
2023/01/17 16:10:04;;;;;;;0.17;0.17;;;;;;;;;;7373072;19;20742;-67
2023/01/17 16:12:33;;;;;;;0.20;0.20;;;;;;;;;;7376040;19;20729;-67
2023/01/17 16:15:02;;;;;;;0.10;0.10;;;;;;;;;;7376324;19;20687;-67
2023/01/17 16:17:31;;;;;;;0.10;0.10;;;;;;;;;;7373413;19;20785;-67
2023/01/17 16:20:00;;;;;;;0.10;0.10;;;;;;;;;;7373921;19;20656;-67
2023/01/17 16:22:31;;;;;;;0.10;0.10;;;;;;;;;;7375124;19;20663;-67
2023/01/17 16:25:00;;;;;;;0.10;0.10;;;;;;;;;;7372345;19;20623;-67
2023/01/17 16:27:29;;;;;;;0.10;0.10;;;;;;;;;;7371909;19;21357;-67
2023/01/17 16:29:58;;;;;;;0.10;0.10;;;;;;;;;;7375735;19;20599;-68
2023/01/17 16:32:30;;;;;;;0.10;0.10;;;;;;;;;;7372949;19;20635;-67
2023/01/17 16:34:59;;;;;;;0.10;0.10;;;;;;;;;;7373103;19;20737;-66